createdAt,value
2023-04-14T00:00:07.030Z,52.37
2023-04-14T00:02:08.841Z,52.78
2023-04-14T00:04:10.828Z,52.08
2023-04-14T00:06:12.722Z,52.05
2023-04-14T00:08:14.614Z,51.93
2023-04-14T00:10:16.449Z,52.48
2023-04-14T00:12:18.314Z,51.99
2023-04-14T00:14:20.109Z,52.35
2023-04-14T00:16:21.925Z,52.33
2023-04-14T00:18:24.003Z,52.78
2023-04-14T00:20:25.912Z,51.77
2023-04-14T00:22:27.742Z,52.17
2023-04-14T00:24:29.552Z,52.02
2023-04-14T00:26:32.091Z,51.85
2023-04-14T00:28:33.886Z,51.77
2023-04-14T00:30:35.608Z,51.91
2023-04-14T00:32:37.356Z,51.79
2023-04-14T00:34:39.167Z,52.24
2023-04-14T00:36:40.936Z,52.18
2023-04-14T00:38:42.778Z,53.18
2023-04-14T00:40:44.620Z,53.50
2023-04-14T00:42:47.470Z,53.52
2023-04-14T00:44:49.218Z,52.49
2023-04-14T00:46:51.723Z,53.81
2023-04-14T00:48:55.788Z,53.94
2023-04-14T00:50:58.884Z,54.47
2023-04-14T00:53:02.311Z,54.44
2023-04-14T00:55:06.010Z,54.62
2023-04-14T00:57:09.804Z,54.85
2023-04-14T00:59:12.694Z,55.15
2023-04-14T01:01:15.425Z,55.20
2023-04-14T01:03:17.383Z,55.70
2023-04-14T01:05:19.389Z,56.11
2023-04-14T01:07:22.448Z,56.92
2023-04-14T01:09:24.482Z,57.30
2023-04-14T01:11:36.505Z,57.37
2023-04-14T01:13:46.949Z,57.44
2023-04-14T01:16:01.232Z,57.65
2023-04-14T01:18:16.467Z,58.28
2023-04-14T01:20:33.273Z,58.79
2023-04-14T01:22:44.157Z,58.89
2023-04-14T01:24:57.107Z,58.98
2023-04-14T01:27:29.432Z,59.66
2023-04-14T01:29:42.068Z,60.81
2023-04-14T01:31:48.455Z,60.23
2023-04-14T01:34:05.165Z,61.16
2023-04-14T01:36:13.783Z,61.16
2023-04-14T01:38:27.526Z,61.75
2023-04-14T01:40:32.278Z,61.56
2023-04-14T01:42:36.822Z,61.16
2023-04-14T01:44:40.728Z,61.16
2023-04-14T01:46:44.852Z,61.47
2023-04-14T01:48:48.051Z,61.54
2023-04-14T01:50:49.937Z,61.96
2023-04-14T01:52:54.989Z,62.37
2023-04-14T01:54:59.639Z,62.49
2023-04-14T01:57:04.053Z,62.60
2023-04-14T01:59:06.363Z,62.26
2023-04-14T02:01:08.684Z,63.41
2023-04-14T02:03:11.881Z,63.08
2023-04-14T02:05:16.077Z,63.53
2023-04-14T02:07:21.861Z,62.69
2023-04-14T02:09:26.709Z,63.49
2023-04-14T02:11:29.843Z,64.19
2023-04-14T02:13:34.108Z,63.82
2023-04-14T02:15:38.841Z,64.40
2023-04-14T02:17:42.957Z,64.74
2023-04-14T02:19:46.423Z,65.01
2023-04-14T02:21:51.006Z,65.04
2023-04-14T02:23:52.950Z,64.67
2023-04-14T02:26:00.793Z,65.07
2023-04-14T02:28:08.908Z,65.24
2023-04-14T02:30:14.791Z,65.06
2023-04-14T02:32:23.503Z,65.43
2023-04-14T02:34:29.352Z,65.26
2023-04-14T02:36:39.428Z,66.38
2023-04-14T02:38:55.567Z,66.57
2023-04-14T02:40:58.567Z,66.91
2023-04-14T02:43:04.644Z,67.50
2023-04-14T02:45:12.167Z,67.45
2023-04-14T02:47:22.257Z,67.06
2023-04-14T02:49:25.454Z,68.12
2023-04-14T02:51:28.346Z,67.90
2023-04-14T02:53:30.400Z,68.71
2023-04-14T02:55:33.757Z,68.25
2023-04-14T02:57:36.044Z,68.51
2023-04-14T02:59:39.115Z,68.77
2023-04-14T03:01:43.455Z,68.36
2023-04-14T03:03:45.602Z,68.26
2023-04-14T03:05:48.818Z,68.59
2023-04-14T03:07:52.690Z,68.44
2023-04-14T03:09:55.854Z,68.72
2023-04-14T03:11:58.763Z,69.22
2023-04-14T03:14:01.343Z,69.43
2023-04-14T03:16:03.829Z,69.23
2023-04-14T03:18:07.178Z,69.07
2023-04-14T03:20:13.215Z,69.60
2023-04-14T03:22:17.522Z,69.73
2023-04-14T03:24:24.602Z,69.95
2023-04-14T03:26:28.286Z,69.86
2023-04-14T03:28:32.648Z,69.75
2023-04-14T03:30:37.002Z,70.35
2023-04-14T03:32:42.394Z,70.20
2023-04-14T03:34:48.634Z,70.25
2023-04-14T03:36:52.790Z,70.04
2023-04-14T03:38:58.915Z,70.12
2023-04-14T03:41:05.627Z,70.16
2023-04-14T03:43:10.059Z,70.29
2023-04-14T03:45:12.264Z,70.29
2023-04-14T03:47:14.718Z,70.42
2023-04-14T03:49:18.793Z,69.73
2023-04-14T03:51:24.429Z,69.93
2023-04-14T03:53:29.631Z,69.69
2023-04-14T03:55:33.934Z,69.67
2023-04-14T03:57:37.584Z,69.72
2023-04-14T03:59:41.638Z,70.23
2023-04-14T04:01:45.140Z,69.71
2023-04-14T04:03:48.722Z,69.73
2023-04-14T04:05:51.134Z,70.54
2023-04-14T04:07:54.084Z,70.95
2023-04-14T04:09:57.069Z,70.44
2023-04-14T04:12:00.201Z,70.83
2023-04-14T04:14:04.470Z,70.78
2023-04-14T04:16:09.712Z,70.65
2023-04-14T04:18:15.456Z,70.55
2023-04-14T04:20:18.774Z,70.66
2023-04-14T04:22:24.056Z,70.68
2023-04-14T04:24:29.104Z,70.35
2023-04-14T04:26:31.039Z,70.57
2023-04-14T04:28:33.100Z,70.88
2023-04-14T04:30:39.991Z,70.64
2023-04-14T04:32:41.815Z,70.84
2023-04-14T04:34:44.428Z,70.15
2023-04-14T04:36:47.261Z,70.35
2023-04-14T04:38:50.125Z,70.33
2023-04-14T04:40:51.901Z,70.15
2023-04-14T04:42:53.672Z,70.76
2023-04-14T04:44:55.477Z,71.14
2023-04-14T04:46:57.360Z,71.22
2023-04-14T04:49:01.858Z,70.27
2023-04-14T04:51:03.986Z,70.92
2023-04-14T04:53:05.991Z,70.97
2023-04-14T04:55:08.058Z,70.42
2023-04-14T04:57:12.143Z,70.48
2023-04-14T04:59:14.322Z,70.54
2023-04-14T05:01:17.048Z,70.46
2023-04-14T05:03:18.851Z,70.73
2023-04-14T05:05:20.848Z,70.67
2023-04-14T05:07:22.654Z,70.29
2023-04-14T05:09:24.538Z,71.44
2023-04-14T05:11:27.204Z,70.81
2023-04-14T05:13:29.027Z,70.75
2023-04-14T05:15:30.905Z,70.63
2023-04-14T05:17:32.689Z,71.37
2023-04-14T05:19:34.731Z,71.33
2023-04-14T05:21:36.643Z,70.98
2023-04-14T05:23:39.982Z,70.64
2023-04-14T05:25:45.841Z,71.40
2023-04-14T05:27:48.900Z,71.04
2023-04-14T05:29:51.938Z,70.42
2023-04-14T05:31:53.783Z,70.74
2023-04-14T05:33:55.780Z,70.29
2023-04-14T05:35:57.684Z,70.48
2023-04-14T05:37:59.474Z,70.40
2023-04-14T05:40:01.531Z,70.36
2023-04-14T05:42:03.420Z,69.85
2023-04-14T05:44:05.497Z,69.55
2023-04-14T05:46:07.218Z,70.17
2023-04-14T05:48:09.412Z,69.46
2023-04-14T05:50:11.760Z,68.82
2023-04-14T05:52:13.487Z,68.88
2023-04-14T05:54:15.684Z,68.31
2023-04-14T05:56:17.448Z,68.57
2023-04-14T05:58:19.863Z,68.22
2023-04-14T06:00:23.495Z,68.54
2023-04-14T06:02:25.596Z,68.06
2023-04-14T06:04:30.783Z,67.90
2023-04-14T06:06:32.788Z,68.50
2023-04-14T06:08:34.649Z,67.83
2023-04-14T06:10:36.518Z,67.41
2023-04-14T06:12:38.382Z,67.41
2023-04-14T06:14:40.947Z,67.46
2023-04-14T06:16:42.823Z,67.29
2023-04-14T06:18:44.820Z,67.05
2023-04-14T06:20:49.894Z,67.19
2023-04-14T06:22:51.738Z,67.50
2023-04-14T06:24:53.708Z,67.49
2023-04-14T06:26:55.832Z,67.75
2023-04-14T06:28:57.977Z,67.17
2023-04-14T06:31:00.788Z,67.61
2023-04-14T06:33:04.775Z,68.08
2023-04-14T06:35:08.058Z,67.43
2023-04-14T06:37:12.503Z,67.91
2023-04-14T06:39:14.446Z,68.04
2023-04-14T06:41:16.496Z,68.12
2023-04-14T06:43:18.558Z,68.44
2023-04-14T06:45:22.547Z,68.25
2023-04-14T06:47:25.604Z,69.01
2023-04-14T06:49:27.472Z,68.69
2023-04-14T06:51:29.448Z,68.61
2023-04-14T06:53:31.548Z,68.20
2023-04-14T06:55:36.377Z,68.25
2023-04-14T06:57:38.200Z,68.52
2023-04-14T06:59:40.009Z,69.04
2023-04-14T07:01:42.119Z,67.98
2023-04-14T07:03:44.702Z,68.82
2023-04-14T07:05:46.785Z,68.44
2023-04-14T07:07:48.760Z,67.69
2023-04-14T07:09:50.672Z,67.26
2023-04-14T07:11:53.750Z,67.63
2023-04-14T07:13:55.634Z,67.90
2023-04-14T07:15:57.807Z,67.18
2023-04-14T07:18:00.230Z,66.60
2023-04-14T07:20:03.995Z,66.07
2023-04-14T07:22:07.684Z,64.80
2023-04-14T07:24:09.754Z,64.97
2023-04-14T07:26:11.945Z,63.73
2023-04-14T07:28:13.898Z,62.94
2023-04-14T07:30:15.988Z,62.63
2023-04-14T07:32:18.744Z,62.10
2023-04-14T07:34:20.891Z,62.21
2023-04-14T07:36:22.833Z,61.60
2023-04-14T07:38:26.568Z,61.58
2023-04-14T07:40:28.615Z,61.28
2023-04-14T07:42:30.910Z,60.59
2023-04-14T07:44:33.358Z,61.35
2023-04-14T07:46:35.263Z,61.34
2023-04-14T07:48:38.204Z,63.26
2023-04-14T07:50:40.136Z,65.29
2023-04-14T07:52:42.150Z,66.45
2023-04-14T07:54:45.928Z,67.55
2023-04-14T07:56:48.862Z,68.78
2023-04-14T07:58:53.695Z,69.47
2023-04-14T08:00:58.611Z,70.40
2023-04-14T08:03:00.901Z,71.23
2023-04-14T08:05:03.078Z,71.60
2023-04-14T08:07:04.994Z,72.57
2023-04-14T08:09:07.197Z,72.34
2023-04-14T08:11:09.138Z,71.93
2023-04-14T08:13:11.151Z,70.90
2023-04-14T08:15:13.175Z,70.80
2023-04-14T08:17:15.115Z,70.80
2023-04-14T08:19:17.050Z,71.30
2023-04-14T08:21:18.998Z,72.51
2023-04-14T08:23:21.484Z,73.71
2023-04-14T08:25:24.122Z,73.64
2023-04-14T08:27:26.099Z,72.89
2023-04-14T08:29:28.461Z,72.84
2023-04-14T08:31:30.399Z,72.68
2023-04-14T08:33:34.015Z,73.38
2023-04-14T08:35:41.581Z,72.65
2023-04-14T08:37:44.362Z,72.56
2023-04-14T08:39:46.362Z,71.51
2023-04-14T08:41:52.588Z,72.03
2023-04-14T08:43:55.039Z,72.50
2023-04-14T08:45:59.763Z,71.17
2023-04-14T08:48:03.771Z,70.95
2023-04-14T08:50:10.989Z,70.46
2023-04-14T08:52:13.424Z,70.17
2023-04-14T08:54:16.517Z,69.63
2023-04-14T08:56:19.014Z,68.85
2023-04-14T08:58:21.618Z,69.38
2023-04-14T09:00:23.918Z,68.07
2023-04-14T09:02:27.627Z,68.41
2023-04-14T09:04:33.706Z,67.09
2023-04-14T09:06:36.587Z,66.95
2023-04-14T09:08:38.459Z,67.10
2023-04-14T09:10:42.899Z,67.11
2023-04-14T09:12:45.760Z,66.84
2023-04-14T09:14:48.688Z,65.50
2023-04-14T09:16:54.072Z,65.85
2023-04-14T09:18:57.527Z,63.64
2023-04-14T09:21:49.029Z,63.53
2023-04-14T09:23:30.279Z,64.79
2023-04-14T09:25:32.282Z,64.17
2023-04-14T09:27:34.380Z,63.93
2023-04-14T09:29:37.576Z,64.13
2023-04-14T09:31:40.046Z,63.29
2023-04-14T09:33:50.804Z,63.01
2023-04-14T09:35:58.623Z,63.30
2023-04-14T09:38:00.579Z,62.97
2023-04-14T09:40:02.477Z,62.55
2023-04-14T09:42:04.826Z,61.57
2023-04-14T09:44:08.672Z,62.18
2023-04-14T09:46:10.924Z,61.60
2023-04-14T09:48:13.300Z,60.09
2023-04-14T09:50:15.378Z,60.18
2023-04-14T09:52:17.339Z,60.98
2023-04-14T09:54:26.750Z,61.77
2023-04-14T09:56:31.949Z,60.71
2023-04-14T09:58:36.008Z,58.95
2023-04-14T10:00:37.848Z,58.53
2023-04-14T10:02:50.088Z,58.63
2023-04-14T10:05:06.697Z,58.49
2023-04-14T10:07:09.104Z,57.42
2023-04-14T10:09:22.413Z,56.92
2023-04-14T10:11:26.484Z,56.40
2023-04-14T10:13:28.396Z,56.64
2023-04-14T10:15:31.060Z,55.65
2023-04-14T10:17:34.201Z,55.68
2023-04-14T10:19:37.912Z,54.60
2023-04-14T10:21:39.929Z,54.62
2023-04-14T10:23:42.674Z,54.89
2023-04-14T10:25:45.043Z,55.18
2023-04-14T10:27:47.539Z,56.16
2023-04-14T10:29:49.637Z,59.40
2023-04-14T10:31:55.515Z,62.23
2023-04-14T10:33:57.616Z,65.70
2023-04-14T10:36:01.177Z,67.01
2023-04-14T10:38:04.815Z,66.54
2023-04-14T10:40:08.219Z,67.55
2023-04-14T10:42:10.414Z,67.97
2023-04-14T10:44:22.629Z,68.57
2023-04-14T10:46:24.816Z,69.52
2023-04-14T10:48:32.545Z,70.44
2023-04-14T10:50:48.179Z,70.47
2023-04-14T10:52:56.247Z,71.04
2023-04-14T10:55:08.053Z,70.24
2023-04-14T10:57:14.747Z,69.49
2023-04-14T10:59:17.827Z,70.69
2023-04-14T11:01:26.185Z,70.33
2023-04-14T11:03:32.738Z,72.84
2023-04-14T11:05:35.878Z,73.28
2023-04-14T11:07:45.870Z,74.48
2023-04-14T11:09:49.507Z,74.42
2023-04-14T11:11:52.396Z,73.63
2023-04-14T11:14:11.120Z,73.38
2023-04-14T11:16:14.939Z,70.42
2023-04-14T11:18:32.818Z,69.31
2023-04-14T11:20:39.997Z,69.91
2023-04-14T11:22:45.749Z,70.21
2023-04-14T11:24:48.153Z,69.83
2023-04-14T11:26:55.481Z,68.86
2023-04-14T11:28:57.879Z,70.04
2023-04-14T11:31:02.417Z,71.30
2023-04-14T11:33:04.338Z,70.44
2023-04-14T11:35:08.365Z,70.27
2023-04-14T11:37:11.091Z,71.73
2023-04-14T11:39:16.070Z,72.45
2023-04-14T11:41:18.149Z,69.86
2023-04-14T11:43:22.814Z,67.51
2023-04-14T11:45:32.073Z,67.02
2023-04-14T11:47:34.007Z,68.03
2023-04-14T11:49:36.899Z,69.51
2023-04-14T11:51:39.044Z,65.73
2023-04-14T11:53:43.343Z,65.14
2023-04-14T11:55:48.263Z,65.45
2023-04-14T11:57:50.134Z,65.47
2023-04-14T11:59:52.103Z,67.07
2023-04-14T12:01:54.005Z,65.30
2023-04-14T12:03:58.069Z,64.26
2023-04-14T12:06:01.895Z,63.20
2023-04-14T12:08:07.781Z,61.90
2023-04-14T12:10:10.257Z,62.10
2023-04-14T12:12:13.997Z,62.14
2023-04-14T12:14:19.517Z,60.43
2023-04-14T12:16:22.289Z,61.63
2023-04-14T12:18:24.216Z,60.29
2023-04-14T12:20:28.173Z,59.13
2023-04-14T12:22:31.050Z,59.72
2023-04-14T12:24:42.692Z,59.13
2023-04-14T12:26:44.987Z,59.40
2023-04-14T12:28:56.058Z,59.50
2023-04-14T12:31:01.653Z,59.65
2023-04-14T12:33:10.180Z,59.67
2023-04-14T12:35:12.040Z,59.20
2023-04-14T12:37:14.052Z,59.24
2023-04-14T12:39:15.920Z,59.00
2023-04-14T12:41:28.382Z,58.79
2023-04-14T12:43:32.925Z,59.19
2023-04-14T12:45:45.342Z,59.71
2023-04-14T12:47:54.654Z,58.42
2023-04-14T12:49:57.382Z,56.94
2023-04-14T12:52:00.442Z,58.13
2023-04-14T12:54:09.527Z,58.51
2023-04-14T12:56:16.634Z,58.01
2023-04-14T12:58:18.576Z,58.50
2023-04-14T13:00:22.199Z,58.04
2023-04-14T13:02:24.273Z,58.21
2023-04-14T13:04:26.375Z,58.16
2023-04-14T13:06:28.239Z,58.15
2023-04-14T13:08:32.814Z,57.92
2023-04-14T13:10:34.629Z,57.74
2023-04-14T13:12:36.623Z,57.29
2023-04-14T13:14:39.326Z,57.61
2023-04-14T13:16:41.620Z,58.61
2023-04-14T13:18:44.854Z,58.98
2023-04-14T13:20:58.038Z,58.91
2023-04-14T13:23:00.130Z,58.81
2023-04-14T13:25:02.711Z,57.62
2023-04-14T13:27:04.625Z,58.30
2023-04-14T13:29:06.739Z,58.86
2023-04-14T13:31:08.717Z,58.25
2023-04-14T13:33:11.216Z,57.59
2023-04-14T13:35:13.151Z,57.61
2023-04-14T13:37:15.084Z,58.10
2023-04-14T13:39:17.147Z,57.79
2023-04-14T13:41:19.763Z,57.20
2023-04-14T13:43:24.924Z,57.07
2023-04-14T13:45:27.029Z,56.83
2023-04-14T13:47:29.531Z,57.38
2023-04-14T13:49:31.919Z,57.01
2023-04-14T13:51:33.970Z,56.19
2023-04-14T13:53:35.962Z,55.64
2023-04-14T13:55:41.491Z,54.62
2023-04-14T13:57:43.507Z,54.92
2023-04-14T13:59:45.359Z,54.78
2023-04-14T14:01:50.578Z,54.53
2023-04-14T14:03:52.881Z,54.08
2023-04-14T14:05:54.985Z,55.15
2023-04-14T14:08:00.015Z,54.59
2023-04-14T14:10:03.180Z,54.07
2023-04-14T14:12:05.437Z,54.59
2023-04-14T14:14:07.474Z,54.09
2023-04-14T14:16:09.554Z,53.74
2023-04-14T14:18:11.459Z,53.94
2023-04-14T14:20:13.432Z,53.66
2023-04-14T14:22:15.618Z,55.33
2023-04-14T14:24:17.522Z,55.53
2023-04-14T14:26:19.332Z,56.55
2023-04-14T14:28:23.800Z,57.85
2023-04-14T14:30:25.976Z,58.37
2023-04-14T14:32:30.473Z,59.26
2023-04-14T14:34:32.612Z,59.33
2023-04-14T14:36:34.598Z,59.13
2023-04-14T14:38:37.373Z,59.11
2023-04-14T14:40:39.285Z,58.69
2023-04-14T14:42:41.225Z,58.96
2023-04-14T14:44:43.238Z,58.16
2023-04-14T14:46:46.216Z,57.40
2023-04-14T14:48:48.158Z,57.60
2023-04-14T14:50:50.152Z,57.59
2023-04-14T14:52:52.225Z,57.93
2023-04-14T14:54:54.084Z,57.85
2023-04-14T14:56:56.708Z,57.59
2023-04-14T14:59:00.906Z,57.89
2023-04-14T15:01:02.936Z,57.00
2023-04-14T15:03:07.621Z,57.74
2023-04-14T15:05:13.130Z,57.40
2023-04-14T15:07:15.494Z,57.86
2023-04-14T15:09:17.537Z,57.59
2023-04-14T15:11:19.584Z,57.11
2023-04-14T15:13:22.150Z,57.49
2023-04-14T15:15:24.177Z,57.98
2023-04-14T15:17:26.238Z,58.42
2023-04-14T15:19:30.639Z,57.91
2023-04-14T15:21:32.945Z,58.96
2023-04-14T15:23:37.342Z,59.04
2023-04-14T15:25:39.200Z,58.26
2023-04-14T15:27:41.150Z,59.15
2023-04-14T15:29:43.117Z,57.90
2023-04-14T15:31:44.964Z,57.97
2023-04-14T15:33:46.905Z,56.97
2023-04-14T15:35:48.901Z,57.59
2023-04-14T15:37:50.872Z,57.50
2023-04-14T15:39:55.538Z,57.79
2023-04-14T15:41:58.634Z,57.47
2023-04-14T15:44:00.979Z,56.51
2023-04-14T15:46:03.709Z,57.01
2023-04-14T15:48:05.775Z,57.42
2023-04-14T15:50:10.722Z,58.11
2023-04-14T15:52:14.917Z,58.26
2023-04-14T15:54:16.743Z,57.56
2023-04-14T15:56:23.277Z,57.38
2023-04-14T15:58:25.961Z,57.55
2023-04-14T16:00:28.245Z,56.34
2023-04-14T16:02:34.273Z,56.15
2023-04-14T16:04:37.073Z,56.29
2023-04-14T16:06:39.361Z,56.18
2023-04-14T16:08:41.684Z,55.95
2023-04-14T16:10:43.915Z,56.48
2023-04-14T16:12:45.730Z,56.48
2023-04-14T16:14:47.898Z,56.52
2023-04-14T16:16:49.731Z,56.86
2023-04-14T16:18:51.681Z,57.30
2023-04-14T16:20:53.825Z,56.71
2023-04-14T16:22:55.686Z,56.77
2023-04-14T16:24:57.526Z,57.67
2023-04-14T16:26:59.983Z,58.08
2023-04-14T16:29:02.130Z,58.54
2023-04-14T16:31:04.614Z,57.95
2023-04-14T16:33:07.110Z,58.57
2023-04-14T16:35:09.572Z,59.28
2023-04-14T16:37:11.584Z,59.23
2023-04-14T16:39:13.982Z,59.17
2023-04-14T16:41:16.009Z,59.27
2023-04-14T16:43:17.836Z,59.48
2023-04-14T16:45:20.344Z,59.58
2023-04-14T16:47:23.483Z,59.81
2023-04-14T16:49:25.547Z,59.63
2023-04-14T16:51:28.070Z,60.18
2023-04-14T16:53:30.146Z,59.82
2023-04-14T16:55:34.116Z,59.98
2023-04-14T16:57:36.088Z,60.00
2023-04-14T16:59:37.987Z,61.00
2023-04-14T17:01:42.470Z,61.02
2023-04-14T17:03:44.844Z,62.37
2023-04-14T17:05:46.963Z,62.52
2023-04-14T17:07:49.460Z,62.45
2023-04-14T17:09:51.440Z,63.27
2023-04-14T17:11:53.552Z,62.09
2023-04-14T17:13:55.832Z,62.60
2023-04-14T17:16:07.730Z,61.94
2023-04-14T17:18:12.079Z,62.08
2023-04-14T17:20:15.603Z,61.55
2023-04-14T17:22:17.643Z,61.73
2023-04-14T17:24:19.891Z,61.99
2023-04-14T17:26:21.833Z,62.39
2023-04-14T17:28:24.218Z,61.80
2023-04-14T17:30:27.406Z,62.04
2023-04-14T17:32:29.523Z,62.67
2023-04-14T17:34:31.733Z,61.69
2023-04-14T17:36:34.470Z,61.71
2023-04-14T17:38:39.020Z,61.79
2023-04-14T17:40:41.177Z,61.66
2023-04-14T17:42:44.215Z,62.13
2023-04-14T17:44:46.337Z,61.88
2023-04-14T17:46:53.505Z,61.93
2023-04-14T17:48:55.901Z,61.83
2023-04-14T17:51:00.561Z,61.97
2023-04-14T17:53:02.985Z,61.69
2023-04-14T17:55:07.670Z,61.84
2023-04-14T17:57:13.429Z,61.41
2023-04-14T17:59:17.788Z,61.65
2023-04-14T18:01:20.213Z,62.68
2023-04-14T18:03:22.665Z,62.77
2023-04-14T18:05:24.670Z,62.59
2023-04-14T18:07:26.792Z,63.47
2023-04-14T18:09:28.992Z,62.83
2023-04-14T18:11:31.722Z,62.56
2023-04-14T18:13:34.810Z,62.28
2023-04-14T18:15:40.700Z,62.72
2023-04-14T18:17:43.553Z,62.81
2023-04-14T18:19:45.980Z,62.22
2023-04-14T18:21:48.474Z,62.64
2023-04-14T18:28:10.928Z,62.33
2023-04-14T18:30:13.178Z,63.11
2023-04-14T18:32:15.666Z,63.31
2023-04-14T18:34:17.766Z,62.57
2023-04-14T18:36:21.980Z,62.92
2023-04-14T18:38:25.608Z,62.78
2023-04-14T18:40:27.960Z,62.84
2023-04-14T18:42:31.540Z,62.60
2023-04-14T18:44:36.516Z,62.81
2023-04-14T18:46:38.910Z,62.47
2023-04-14T18:48:41.518Z,62.79
2023-04-14T18:50:44.640Z,62.59
2023-04-14T18:52:46.701Z,63.02
2023-04-14T18:54:49.094Z,62.14
2023-04-14T18:56:51.359Z,62.85
2023-04-14T18:58:53.256Z,62.77
2023-04-14T19:00:56.561Z,62.87
2023-04-14T19:02:59.031Z,63.28
2023-04-14T19:05:01.489Z,63.18
2023-04-14T19:07:04.071Z,63.32
2023-04-14T19:09:08.488Z,62.68
2023-04-14T19:11:11.865Z,62.75
2023-04-14T19:13:16.146Z,62.41
2023-04-14T19:15:18.088Z,63.11
2023-04-14T19:17:19.836Z,63.49
2023-04-14T19:19:21.783Z,63.54
2023-04-14T19:21:24.110Z,64.53
2023-04-14T19:23:25.925Z,65.14
2023-04-14T19:25:27.971Z,65.15
2023-04-14T19:27:30.131Z,65.93
2023-04-14T19:29:32.126Z,66.32
2023-04-14T19:31:34.083Z,66.57
2023-04-14T19:33:35.952Z,67.69
2023-04-14T19:35:37.929Z,67.66
2023-04-14T19:37:39.882Z,69.41
2023-04-14T19:39:41.637Z,69.05
2023-04-14T19:41:43.463Z,69.40
2023-04-14T19:43:45.847Z,70.00
2023-04-14T19:45:51.942Z,70.28
2023-04-14T19:47:54.439Z,70.60
2023-04-14T19:49:59.690Z,71.60
2023-04-14T19:52:01.786Z,71.46
2023-04-14T19:54:05.616Z,71.67
2023-04-14T19:56:07.837Z,72.29
2023-04-14T19:58:09.596Z,72.20
2023-04-14T20:00:12.974Z,71.63
2023-04-14T20:02:14.880Z,71.09
2023-04-14T20:04:16.929Z,71.75
2023-04-14T20:06:19.762Z,71.63
2023-04-14T20:08:22.811Z,71.85
2023-04-14T20:10:25.082Z,72.08
2023-04-14T20:12:27.041Z,71.59
2023-04-14T20:14:29.232Z,72.54
2023-04-14T20:16:31.293Z,72.67
2023-04-14T20:18:35.524Z,73.55
2023-04-14T20:20:41.048Z,73.92
2023-04-14T20:22:42.856Z,74.37
2023-04-14T20:24:44.816Z,75.12
2023-04-14T20:26:46.698Z,75.44
2023-04-14T20:28:48.780Z,75.66
2023-04-14T20:30:51.448Z,76.14
2023-04-14T20:32:53.381Z,75.86
2023-04-14T20:34:55.263Z,76.94
2023-04-14T20:36:57.069Z,76.83
2023-04-14T20:38:59.391Z,76.50
2023-04-14T20:41:01.502Z,76.30
2023-04-14T20:43:04.708Z,76.51
2023-04-14T20:45:07.421Z,77.14
2023-04-14T20:47:09.573Z,76.74
2023-04-14T20:49:12.000Z,76.65
2023-04-14T20:51:13.919Z,76.41
2023-04-14T20:53:16.389Z,76.67
2023-04-14T20:55:19.613Z,76.84
2023-04-14T20:57:21.490Z,76.77
2023-04-14T20:59:23.539Z,76.68
2023-04-14T21:01:27.409Z,76.38
2023-04-14T21:03:30.038Z,75.85
2023-04-14T21:05:32.172Z,76.02
2023-04-14T21:07:36.078Z,76.61
2023-04-14T21:09:38.058Z,77.20
2023-04-14T21:11:39.943Z,77.96
2023-04-14T21:15:28.455Z,77.76
2023-04-14T21:16:04.271Z,77.52
2023-04-14T21:18:12.070Z,78.15
2023-04-14T21:20:14.046Z,78.25
2023-04-14T21:22:16.007Z,78.88
2023-04-14T21:24:18.495Z,78.63
2023-04-14T21:26:20.316Z,78.31
2023-04-14T21:28:22.194Z,78.42
2023-04-14T21:30:24.034Z,77.72
2023-04-14T21:32:26.001Z,77.33
2023-04-14T21:34:27.881Z,78.17
2023-04-14T21:36:30.016Z,78.59
2023-04-14T21:38:31.875Z,78.30
2023-04-14T21:40:33.911Z,78.70
2023-04-14T21:42:35.753Z,78.06
2023-04-14T21:44:37.711Z,78.27
2023-04-14T21:46:39.455Z,77.92
2023-04-14T21:48:41.401Z,77.11
2023-04-14T21:50:43.622Z,77.32
2023-04-14T21:52:47.857Z,77.32
2023-04-14T21:54:52.138Z,77.33
2023-04-14T21:56:53.934Z,77.35
2023-04-14T21:58:55.833Z,77.02
2023-04-14T22:00:57.694Z,78.34
2023-04-14T22:02:59.759Z,77.32
2023-04-14T22:05:01.675Z,78.55
2023-04-14T22:07:03.514Z,78.56
2023-04-14T22:09:06.287Z,78.52
2023-04-14T22:11:08.231Z,77.70
2023-04-14T22:13:10.401Z,77.52
2023-04-14T22:15:12.429Z,77.36
2023-04-14T22:17:14.238Z,77.43
2023-04-14T22:19:17.003Z,77.69
2023-04-14T22:21:18.865Z,77.71
2023-04-14T22:23:21.067Z,77.35
2023-04-14T22:25:23.513Z,77.42
2023-04-14T22:27:25.750Z,77.14
2023-04-14T22:29:27.856Z,77.40
2023-04-14T22:31:29.889Z,77.18
2023-04-14T22:33:31.767Z,77.21
2023-04-14T22:35:33.708Z,78.00
2023-04-14T22:37:35.577Z,78.12
2023-04-14T22:39:37.345Z,78.12
2023-04-14T22:41:39.118Z,77.43
2023-04-14T22:43:41.152Z,77.97
2023-04-14T22:45:43.171Z,77.79
2023-04-14T22:47:45.154Z,77.59
2023-04-14T22:49:46.985Z,77.57
2023-04-14T22:51:48.821Z,76.47
2023-04-14T22:53:50.660Z,76.66
2023-04-14T22:55:52.460Z,77.09
2023-04-14T22:57:54.409Z,76.75
2023-04-14T22:59:56.688Z,77.17
2023-04-14T23:01:58.877Z,77.13
2023-04-14T23:04:01.010Z,77.08
2023-04-14T23:06:03.354Z,77.55
2023-04-14T23:08:05.770Z,77.09
2023-04-14T23:10:09.255Z,76.71
2023-04-14T23:12:11.533Z,77.54
2023-04-14T23:14:13.543Z,77.11
2023-04-14T23:16:17.273Z,77.02
2023-04-14T23:18:19.436Z,77.24
2023-04-14T23:20:22.240Z,76.74
2023-04-14T23:22:25.074Z,76.25
2023-04-14T23:24:28.278Z,76.29
2023-04-14T23:26:31.221Z,76.47
2023-04-14T23:28:33.151Z,76.19
2023-04-14T23:30:35.730Z,76.57
2023-04-14T23:32:37.674Z,76.94
2023-04-14T23:34:41.882Z,76.90
2023-04-14T23:36:46.076Z,76.38
2023-04-14T23:38:47.772Z,77.03
2023-04-14T23:40:49.640Z,77.13
2023-04-14T23:42:51.444Z,77.09
2023-04-14T23:44:53.189Z,77.27
2023-04-14T23:46:55.426Z,77.02
2023-04-14T23:48:58.311Z,76.31
2023-04-14T23:51:14.396Z,76.79
2023-04-14T23:53:20.161Z,76.87
2023-04-14T23:55:22.393Z,76.79
2023-04-14T23:57:24.778Z,76.61
2023-04-14T23:59:27.163Z,75.95
